Time;durP1;ratioP1;P1;durP2;ratioP2;P2;SDS_P1;SDS_P2;PMS_P1;PMS_P2;Temp;Humidity;BMP_temperature;BMP_pressure;BME280_temperature;BME280_humidity;BME280_pressure;Samples;Min_cycle;Max_cycle;Signal;HPM_P1;HPM_P2
2022/03/17 00:01:32;;;;;;;22.25;14.80;;;;;;;11.22;100.00;101860.63;5060188;28;20065;-69
2022/03/17 00:03:58;;;;;;;23.90;14.57;;;;;;;11.20;100.00;101845.63;5049993;28;20081;-69
2022/03/17 00:06:24;;;;;;;26.00;14.10;;;;;;;11.21;100.00;101852.69;5054355;28;20028;-68
2022/03/17 00:08:50;;;;;;;21.58;15.23;;;;;;;11.23;100.00;101856.25;5064087;28;20032;-68
2022/03/17 00:11:15;;;;;;;27.00;14.38;;;;;;;11.25;100.00;101859.81;5060579;28;20025;-68
2022/03/17 00:13:41;;;;;;;24.48;15.15;;;;;;;11.20;100.00;101858.78;5060657;28;20091;-69
2022/03/17 00:16:09;;;;;;;20.55;14.43;;;;;;;11.20;100.00;101862.31;5064388;28;20507;-68
2022/03/17 00:18:34;;;;;;;23.45;14.68;;;;;;;11.21;100.00;101863.22;5052677;28;20033;-68
2022/03/17 00:21:00;;;;;;;26.13;14.98;;;;;;;11.17;100.00;101867.50;5059112;28;20031;-68
2022/03/17 00:23:25;;;;;;;23.27;15.88;;;;;;;11.11;100.00;101868.19;5067911;28;20408;-69
2022/03/17 00:25:50;;;;;;;21.55;15.15;;;;;;;11.06;100.00;101863.66;5056824;28;20036;-67
2022/03/17 00:28:16;;;;;;;27.75;16.13;;;;;;;11.06;100.00;101867.16;5065801;28;20091;-67
2022/03/17 00:30:41;;;;;;;25.30;15.63;;;;;;;11.10;100.00;101873.44;5062309;28;20102;-68
2022/03/17 00:33:06;;;;;;;28.65;15.95;;;;;;;11.08;100.00;101862.84;5070188;28;20032;-68
2022/03/17 00:35:42;;;;;;;29.08;16.45;;;;;;;11.08;100.00;101857.59;5068802;28;20535;-68
2022/03/17 00:38:14;;;;;;;29.42;16.98;;;;;;;11.07;100.00;101861.06;5063764;28;20488;-68
2022/03/17 00:40:41;;;;;;;25.80;16.45;;;;;;;11.12;100.00;101866.44;5053656;28;20016;-68
2022/03/17 00:43:09;;;;;;;25.13;18.20;;;;;;;11.14;100.00;101868.28;5059808;28;20155;-69
2022/03/17 00:45:35;;;;;;;27.15;16.85;;;;;;;11.09;100.00;101861.97;5064750;28;20465;-68
2022/03/17 00:48:01;;;;;;;26.35;17.38;;;;;;;11.09;100.00;101867.25;5069175;28;20115;-68
2022/03/17 00:50:27;;;;;;;30.27;18.17;;;;;;;11.04;100.00;101866.22;5063148;28;20021;-68
2022/03/17 00:52:53;;;;;;;30.70;18.33;;;;;;;11.00;100.00;101874.88;5065704;28;20130;-68
2022/03/17 00:55:19;;;;;;;30.75;19.10;;;;;;;10.94;100.00;101875.56;5071968;28;20484;-68
2022/03/17 00:57:45;;;;;;;31.33;20.23;;;;;;;10.90;100.00;101873.69;5059370;28;20095;-68
2022/03/17 01:00:14;;;;;;;34.58;20.75;;;;;;;10.89;100.00;101887.72;5059128;28;20095;-68
2022/03/17 01:02:43;;;;;;;34.47;20.65;;;;;;;10.93;100.00;101886.97;5061172;28;20056;-68
2022/03/17 01:05:09;;;;;;;30.55;21.60;;;;;;;10.90;100.00;101875.44;5064796;28;20024;-68
2022/03/17 01:07:36;;;;;;;38.08;22.45;;;;;;;10.77;100.00;101872.41;5062791;28;20385;-68
2022/03/17 01:10:02;;;;;;;44.63;24.60;;;;;;;10.73;100.00;101882.78;5060862;28;20100;-68
2022/03/17 01:12:27;;;;;;;40.70;25.10;;;;;;;10.67;100.00;101875.56;5057281;28;20033;-68
2022/03/17 01:14:53;;;;;;;43.83;26.65;;;;;;;10.64;100.00;101886.00;5055613;28;20124;-69
2022/03/17 01:17:18;;;;;;;50.28;27.00;;;;;;;10.54;100.00;101884.81;5063249;28;20029;-68
2022/03/17 01:19:43;;;;;;;51.78;27.42;;;;;;;10.44;100.00;101878.34;5056078;28;20023;-68
2022/03/17 01:22:09;;;;;;;48.25;28.20;;;;;;;10.42;100.00;101890.56;5067000;28;20024;-68
2022/03/17 01:24:34;;;;;;;46.92;28.05;;;;;;;10.40;100.00;101886.94;5071280;28;20019;-67
2022/03/17 01:26:59;;;;;;;50.30;30.52;;;;;;;10.37;100.00;101883.34;5061375;28;20043;-67
2022/03/17 01:29:26;;;;;;;52.33;30.25;;;;;;;10.38;100.00;101893.03;5068191;28;20025;-68
2022/03/17 01:31:52;;;;;;;54.58;32.65;;;;;;;10.38;100.00;101899.19;5056153;28;20021;-66
2022/03/17 01:34:17;;;;;;;61.47;33.25;;;;;;;10.36;100.00;101902.59;5068517;28;20044;-69
2022/03/17 01:36:43;;;;;;;65.20;35.30;;;;;;;10.39;100.00;101906.25;5062251;28;20028;-68
2022/03/17 01:39:08;;;;;;;62.55;35.90;;;;;;;10.43;100.00;101912.47;5064225;28;20472;-68
2022/03/17 01:41:34;;;;;;;66.85;36.35;;;;;;;10.48;100.00;101904.75;5070846;28;20024;-65
2022/03/17 01:43:59;;;;;;;61.47;36.20;;;;;;;10.52;100.00;101917.19;5056894;28;20021;-65
2022/03/17 01:46:25;;;;;;;57.92;34.47;;;;;;;10.44;100.00;101915.19;5063729;28;20102;-66
2022/03/17 01:48:50;;;;;;;57.33;31.95;;;;;;;10.41;100.00;101930.84;5064818;28;20179;-65
2022/03/17 01:51:15;;;;;;;50.03;28.50;;;;;;;10.36;100.00;101945.56;5069328;28;20040;-69
2022/03/17 01:53:41;;;;;;;31.98;20.65;;;;;;;10.20;100.00;101941.50;5070893;28;20557;-66
2022/03/17 01:56:07;;;;;;;27.67;18.08;;;;;;;10.09;100.00;101953.34;5062249;28;20040;-66
2022/03/17 01:58:33;;;;;;;28.30;17.17;;;;;;;9.98;100.00;101960.84;5069226;28;20120;-66
2022/03/17 02:00:58;;;;;;;22.58;15.00;;;;;;;9.71;100.00;101977.38;5072637;28;20029;-66
2022/03/17 02:03:27;;;;;;;17.58;12.15;;;;;;;9.49;100.00;101990.53;5052472;28;20031;-67
2022/03/17 02:05:53;;;;;;;15.32;7.60;;;;;;;8.97;100.00;101990.19;5068537;28;20054;-66
2022/03/17 02:08:18;;;;;;;15.52;7.18;;;;;;;8.67;100.00;101989.78;5061863;28;20035;-67
2022/03/17 02:13:27;;;;;;;20.75;8.68;;;;;;;8.25;100.00;102014.19;5067937;28;20044;-67
2022/03/17 02:15:54;;;;;;;18.08;8.40;;;;;;;8.13;100.00;102018.88;5054908;28;20032;-67
2022/03/17 02:18:21;;;;;;;20.65;8.38;;;;;;;8.03;100.00;102021.06;5067173;28;20075;-66
2022/03/17 02:20:48;;;;;;;17.55;8.50;;;;;;;7.97;100.00;102026.03;5049638;28;20028;-66
2022/03/17 02:26:01;;;;;;;24.85;9.38;;;;;;;7.86;100.00;102022.00;5073753;28;20400;-66
2022/03/17 02:28:28;;;;;;;24.55;10.13;;;;;;;7.81;100.00;102024.41;5073005;28;20067;-67
2022/03/17 02:30:54;;;;;;;16.33;8.93;;;;;;;7.79;100.00;102035.66;5062166;28;20029;-67
2022/03/17 02:33:19;;;;;;;20.65;8.63;;;;;;;7.75;100.00;102040.75;5066556;28;20032;-67
2022/03/17 02:35:47;;;;;;;20.40;8.93;;;;;;;7.73;100.00;102050.25;5070827;28;20029;-66
2022/03/17 02:38:13;;;;;;;18.75;8.57;;;;;;;7.69;100.00;102060.50;5071027;28;20047;-67
2022/03/17 02:40:40;;;;;;;20.77;9.90;;;;;;;7.66;100.00;102056.00;5064088;28;20017;-67
2022/03/17 02:43:07;;;;;;;25.52;11.15;;;;;;;7.65;100.00;102053.31;5064729;28;20476;-67
2022/03/17 02:45:33;;;;;;;25.83;12.82;;;;;;;7.67;100.00;102063.06;5063882;28;20117;-67
2022/03/17 02:47:59;;;;;;;31.20;14.32;;;;;;;7.66;100.00;102076.97;5067907;28;20040;-66
2022/03/17 02:50:24;;;;;;;39.35;14.98;;;;;;;7.66;100.00;102079.59;5064918;28;20025;-69
2022/03/17 02:52:50;;;;;;;28.77;14.68;;;;;;;7.62;100.00;102075.03;5070506;28;20115;-69
2022/03/17 02:55:16;;;;;;;33.42;15.95;;;;;;;7.63;100.00;102078.56;5052205;28;20041;-68
2022/03/17 02:57:44;;;;;;;32.92;14.95;;;;;;;7.62;100.00;102084.63;5069424;28;20115;-68
2022/03/17 03:00:11;;;;;;;33.67;16.05;;;;;;;7.60;100.00;102089.78;5058548;28;20028;-66
2022/03/17 03:02:37;;;;;;;35.30;16.00;;;;;;;7.59;100.00;102101.09;5063848;28;20468;-67
2022/03/17 03:05:04;;;;;;;27.20;14.65;;;;;;;7.56;100.00;102106.19;5052687;28;20020;-67
2022/03/17 03:07:30;;;;;;;39.83;15.73;;;;;;;7.59;100.00;102129.91;5071973;28;20033;-67
2022/03/17 03:09:55;;;;;;;34.58;14.70;;;;;;;7.59;100.00;102125.53;5059885;28;20469;-67
2022/03/17 03:12:21;;;;;;;28.60;14.68;;;;;;;7.63;100.00;102123.09;5060492;28;20025;-67
2022/03/17 03:14:47;;;;;;;23.70;13.20;;;;;;;7.62;100.00;102134.41;5069790;28;20028;-67
2022/03/17 03:17:13;;;;;;;30.83;13.15;;;;;;;7.64;100.00;102138.88;5060489;28;20040;-67
2022/03/17 03:19:38;;;;;;;33.15;13.57;;;;;;;7.64;100.00;102157.22;5068921;28;20028;-67
2022/03/17 03:22:04;;;;;;;27.77;12.38;;;;;;;7.63;100.00;102163.28;5049612;28;20465;-67
2022/03/17 03:24:29;;;;;;;21.15;9.43;;;;;;;7.56;100.00;102163.81;5056061;28;20473;-67
2022/03/17 03:26:54;;;;;;;32.53;8.95;;;;;;;7.54;100.00;102182.06;5069743;28;20107;-67
2022/03/17 03:29:23;;;;;;;28.63;7.35;;;;;;;7.49;100.00;102173.06;5065385;28;20056;-67
2022/03/17 03:31:59;;;;;;;26.92;7.07;;;;;;;7.47;100.00;102179.06;5068216;28;20055;-67
2022/03/17 03:34:26;;;;;;;30.95;5.15;;;;;;;7.45;100.00;102186.84;5045605;28;20035;-66
2022/03/17 03:39:38;;;;;;;34.22;4.93;;;;;;;7.38;100.00;102211.81;5066869;28;20055;-66
2022/03/17 03:42:05;;;;;;;24.80;4.50;;;;;;;7.37;100.00;102215.25;5061083;28;20020;-67
2022/03/17 03:44:31;;;;;;;25.17;4.43;;;;;;;7.38;100.00;102217.03;5068423;28;20094;-66
2022/03/17 03:46:56;;;;;;;22.42;4.03;;;;;;;7.35;100.00;102230.00;5058613;28;20029;-67
2022/03/17 03:49:22;;;;;;;33.05;6.60;;;;;;;7.36;100.00;102238.72;5060962;28;20425;-67
2022/03/17 03:51:48;;;;;;;32.20;3.85;;;;;;;7.32;100.00;102242.91;5063418;28;20084;-66
2022/03/17 03:54:17;;;;;;;26.13;3.45;;;;;;;7.34;100.00;102251.75;5063055;28;20041;-67
2022/03/17 03:56:43;;;;;;;19.73;3.25;;;;;;;7.31;100.00;102248.06;5063632;28;20530;-67
2022/03/17 03:59:13;;;;;;;17.75;3.33;;;;;;;7.28;100.00;102261.88;5070070;28;20051;-68
2022/03/17 04:01:38;;;;;;;18.33;4.60;;;;;;;7.30;100.00;102265.50;5063180;28;20020;-67
2022/03/17 04:04:04;;;;;;;26.02;3.15;;;;;;;7.29;100.00;102278.50;5060473;28;20500;-67
2022/03/17 04:06:31;;;;;;;15.57;2.72;;;;;;;7.29;100.00;102279.41;5064693;28;20108;-67
2022/03/17 04:08:56;;;;;;;17.52;3.28;;;;;;;7.29;100.00;102289.88;5063011;28;20435;-67
2022/03/17 04:11:21;;;;;;;17.58;2.78;;;;;;;7.29;100.00;102300.34;5059619;28;20046;-66
2022/03/17 04:13:47;;;;;;;16.02;2.78;;;;;;;7.29;100.00;102304.69;5060906;28;20029;-67
2022/03/17 04:16:12;;;;;;;15.70;2.45;;;;;;;7.30;100.00;102302.16;5064592;28;20111;-67
2022/03/17 04:18:38;;;;;;;10.82;2.13;;;;;;;7.30;100.00;102311.72;5057273;28;20089;-67
2022/03/17 04:21:03;;;;;;;13.40;1.88;;;;;;;7.29;100.00;102325.66;5069459;28;20031;-67
2022/03/17 04:23:28;;;;;;;19.73;2.75;;;;;;;7.28;100.00;102329.06;5067463;28;20484;-68
2022/03/17 04:25:54;;;;;;;11.40;1.77;;;;;;;7.28;100.00;102335.19;5065483;28;20060;-67
2022/03/17 04:28:19;;;;;;;13.30;1.88;;;;;;;7.28;100.00;102345.66;5057119;28;20483;-67
2022/03/17 04:30:45;;;;;;;14.60;2.17;;;;;;;7.25;100.00;102349.03;5063815;28;20097;-67
2022/03/17 04:33:10;;;;;;;12.18;3.13;;;;;;;7.25;100.00;102356.88;5060140;28;20020;-67
2022/03/17 04:35:35;;;;;;;16.40;2.63;;;;;;;7.21;100.00;102374.97;5065605;28;20033;-68
2022/03/17 04:38:01;;;;;;;14.90;2.40;;;;;;;7.21;100.00;102378.47;5066823;28;20021;-68
2022/03/17 04:40:26;;;;;;;19.30;2.65;;;;;;;7.17;100.00;102373.88;5065808;28;20141;-67
2022/03/17 04:42:51;;;;;;;15.18;1.95;;;;;;;7.16;100.00;102392.13;5059106;28;20037;-67
2022/03/17 04:45:17;;;;;;;8.15;1.23;;;;;;;7.18;100.00;102401.88;5060988;28;20020;-67
2022/03/17 04:47:42;;;;;;;15.45;2.20;;;;;;;7.17;100.00;102399.19;5053440;28;20062;-68
2022/03/17 04:50:08;;;;;;;13.25;3.08;;;;;;;7.15;100.00;102419.13;5064611;28;20063;-67
2022/03/17 04:55:17;;;;;;;17.77;2.50;;;;;;;7.15;100.00;102424.34;5063076;28;20044;-67
2022/03/17 04:57:43;;;;;;;15.98;2.20;;;;;;;7.16;100.00;102434.94;5046008;28;20033;-67
2022/03/17 05:00:09;;;;;;;23.75;2.20;;;;;;;7.18;100.00;102437.63;5056898;28;20473;-67
2022/03/17 05:02:34;;;;;;;16.13;1.85;;;;;;;7.17;100.00;102441.94;5057609;28;20492;-67
2022/03/17 05:04:59;;;;;;;19.40;3.53;;;;;;;7.18;100.00;102441.13;5054582;28;20016;-67
2022/03/17 05:07:25;;;;;;;22.45;2.55;;;;;;;7.17;100.00;102451.53;5073039;28;20052;-68
2022/03/17 05:09:50;;;;;;;16.27;2.25;;;;;;;7.17;100.00;102464.63;5059709;28;20028;-67
2022/03/17 05:12:16;;;;;;;13.82;2.10;;;;;;;7.18;100.00;102469.06;5060302;28;20045;-67
2022/03/17 05:14:41;;;;;;;24.50;2.28;;;;;;;7.19;100.00;102470.81;5047752;28;20083;-68
2022/03/17 05:17:06;;;;;;;12.45;1.73;;;;;;;7.18;100.00;102490.88;5057259;28;20029;-68
2022/03/17 05:19:31;;;;;;;14.82;2.00;;;;;;;7.15;100.00;102488.09;5057001;28;20032;-68
2022/03/17 05:21:57;;;;;;;14.90;2.03;;;;;;;7.14;100.00;102490.63;5075493;28;20032;-68
2022/03/17 05:24:22;;;;;;;10.38;1.73;;;;;;;7.14;100.00;102498.50;5061421;28;20028;-66
2022/03/17 05:26:47;;;;;;;9.23;1.65;;;;;;;7.15;100.00;102502.88;5056307;28;20465;-67
2022/03/17 05:29:13;;;;;;;15.98;1.90;;;;;;;7.05;100.00;102522.41;5057393;28;20111;-67
2022/03/17 05:31:39;;;;;;;15.05;2.55;;;;;;;6.98;100.00;102518.53;5056217;28;20033;-68
2022/03/17 05:34:04;;;;;;;17.67;3.20;;;;;;;6.92;100.00;102528.66;5063303;28;20032;-68
2022/03/17 05:36:29;;;;;;;19.83;2.35;;;;;;;6.94;100.00;102529.63;5065696;28;20025;-67
2022/03/17 05:38:55;;;;;;;21.83;3.38;;;;;;;6.96;100.00;102537.56;5061091;28;20016;-66
2022/03/17 05:41:22;;;;;;;15.25;2.28;;;;;;;6.94;100.00;102542.72;5058766;28;20088;-66
2022/03/17 05:43:47;;;;;;;16.70;2.20;;;;;;;6.95;100.00;102557.59;5058189;28;20017;-67
2022/03/17 05:46:12;;;;;;;16.80;2.65;;;;;;;6.96;100.00;102562.03;5072666;28;20039;-67
2022/03/17 05:48:40;;;;;;;13.02;1.83;;;;;;;6.96;100.00;102564.66;5065875;28;20434;-66
2022/03/17 05:51:05;;;;;;;25.42;2.35;;;;;;;6.98;100.00;102572.59;5032532;28;20041;-67
2022/03/17 05:53:30;;;;;;;26.48;3.00;;;;;;;6.96;100.00;102571.59;5059679;28;20106;-67
2022/03/17 05:55:56;;;;;;;17.60;2.25;;;;;;;7.00;100.00;102578.81;5060346;28;20120;-67
2022/03/17 05:58:21;;;;;;;13.18;2.33;;;;;;;7.03;100.00;102579.91;5067216;28;20028;-68
2022/03/17 06:00:46;;;;;;;17.42;2.70;;;;;;;7.05;100.00;102588.75;5062421;28;20439;-68
2022/03/17 06:03:12;;;;;;;13.15;2.22;;;;;;;7.09;100.00;102593.38;5059978;28;20068;-67
2022/03/17 06:05:37;;;;;;;21.15;3.63;;;;;;;7.10;100.00;102607.34;5061555;28;20028;-67
2022/03/17 06:08:03;;;;;;;14.63;2.40;;;;;;;7.12;100.00;102596.97;5057476;28;20506;-68
2022/03/17 06:10:33;;;;;;;7.68;1.98;;;;;;;7.16;100.00;102612.03;5068671;28;20016;-67
2022/03/17 06:13:03;;;;;;;19.42;2.45;;;;;;;7.16;100.00;102614.66;5059525;28;20033;-67
2022/03/17 06:15:29;;;;;;;19.88;2.13;;;;;;;7.18;100.00;102621.78;5041639;28;20017;-67
2022/03/17 06:17:59;;;;;;;18.85;2.40;;;;;;;7.21;100.00;102621.97;5057653;28;20028;-66
2022/03/17 06:20:27;;;;;;;12.88;2.10;;;;;;;7.19;100.00;102633.16;5050227;28;20032;-67
2022/03/17 06:22:54;;;;;;;22.60;2.28;;;;;;;7.21;100.00;102634.16;5059472;28;20032;-67
2022/03/17 06:25:22;;;;;;;16.42;2.72;;;;;;;7.22;100.00;102647.34;5063297;28;20559;-67
2022/03/17 06:27:48;;;;;;;17.67;2.78;;;;;;;7.23;100.00;102650.84;5069767;28;20036;-67
2022/03/17 06:30:20;;;;;;;15.95;2.40;;;;;;;7.21;100.00;102673.44;5042856;28;20040;-67
2022/03/17 06:32:46;;;;;;;20.38;4.13;;;;;;;7.11;100.00;102671.06;5055995;28;20031;-67
2022/03/17 06:35:17;;;;;;;17.50;3.05;;;;;;;7.12;100.00;102678.13;5053762;28;20031;-67
2022/03/17 06:37:44;;;;;;;11.35;2.10;;;;;;;7.12;100.00;102675.50;5060878;28;20155;-67
2022/03/17 06:40:11;;;;;;;14.35;2.90;;;;;;;7.12;100.00;102689.47;5065749;28;20033;-68
2022/03/17 06:42:36;;;;;;;13.13;2.28;;;;;;;7.09;100.00;102679.75;5036145;28;20111;-69
2022/03/17 06:45:02;;;;;;;20.30;2.10;;;;;;;7.14;100.00;102686.97;5066624;28;20108;-69
2022/03/17 06:47:27;;;;;;;20.60;3.28;;;;;;;7.14;100.00;102693.09;5055914;28;20397;-69
2022/03/17 06:49:59;;;;;;;13.77;1.50;;;;;;;7.20;100.00;102696.09;5059082;28;20403;-70
2022/03/17 06:52:25;;;;;;;12.77;2.00;;;;;;;7.19;100.00;102703.84;5047992;28;20512;-70
2022/03/17 06:54:50;;;;;;;15.70;2.13;;;;;;;7.21;100.00;102710.09;5049801;28;20477;-70
2022/03/17 06:57:17;;;;;;;12.77;1.60;;;;;;;7.23;100.00;102713.69;5047842;28;20071;-70
2022/03/17 06:59:43;;;;;;;12.93;1.98;;;;;;;7.16;100.00;102728.16;5048793;28;20022;-70
2022/03/17 07:02:08;;;;;;;12.77;2.10;;;;;;;7.19;100.00;102733.56;5050443;28;20457;-70
2022/03/17 07:04:34;;;;;;;12.20;2.15;;;;;;;7.20;100.00;102737.06;5044993;28;20021;-69
2022/03/17 07:06:59;;;;;;;13.35;1.98;;;;;;;7.20;100.00;102739.69;5050030;28;20048;-70
2022/03/17 07:09:24;;;;;;;12.27;2.00;;;;;;;7.18;100.00;102736.09;5049432;28;20029;-70
2022/03/17 07:11:50;;;;;;;14.60;2.15;;;;;;;7.20;100.00;102739.69;5049650;28;20424;-70
2022/03/17 07:14:15;;;;;;;13.38;2.40;;;;;;;7.20;100.00;102742.31;5043114;28;20029;-71
2022/03/17 07:16:40;;;;;;;12.25;1.65;;;;;;;7.21;100.00;102746.75;5040589;28;20116;-68
2022/03/17 07:19:07;;;;;;;8.02;1.58;;;;;;;7.27;100.00;102752.38;5039007;28;20075;-68
2022/03/17 07:21:32;;;;;;;9.30;1.60;;;;;;;7.31;100.00;102769.16;5046605;28;20520;-68
2022/03/17 07:23:59;;;;;;;10.80;1.48;;;;;;;7.29;100.00;102769.06;5043352;28;20021;-68
2022/03/17 07:26:24;;;;;;;8.23;1.58;;;;;;;7.30;100.00;102781.34;5036463;28;20028;-68
2022/03/17 07:28:49;;;;;;;14.45;1.90;;;;;;;7.29;100.00;102776.03;5044053;28;20026;-68
2022/03/17 07:31:15;;;;;;;10.77;1.48;;;;;;;7.29;100.00;102787.41;5038483;28;20033;-68
2022/03/17 07:33:40;;;;;;;22.65;2.20;;;;;;;7.31;100.00;102796.25;5042002;28;20119;-68
2022/03/17 07:36:05;;;;;;;16.70;2.45;;;;;;;7.31;100.00;102796.25;5044131;28;20116;-68
2022/03/17 07:38:31;;;;;;;12.90;1.92;;;;;;;7.35;100.00;102805.19;5044528;28;20472;-68
2022/03/17 07:40:56;;;;;;;12.88;1.58;;;;;;;7.32;100.00;102799.78;5044056;28;20033;-71
2022/03/17 07:43:23;;;;;;;10.63;3.03;;;;;;;7.34;100.00;102811.22;5048345;28;20036;-71
2022/03/17 07:45:49;;;;;;;17.52;2.67;;;;;;;7.34;100.00;102821.72;5047474;28;20029;-72
2022/03/17 07:48:14;;;;;;;6.70;1.30;;;;;;;7.32;100.00;102818.09;5043454;28;20136;-71
2022/03/17 07:50:40;;;;;;;9.23;1.42;;;;;;;7.32;100.00;102815.50;5045763;28;20442;-70
2022/03/17 07:53:05;;;;;;;10.38;1.58;;;;;;;7.29;99.57;102824.06;5047711;28;20033;-71
2022/03/17 07:55:31;;;;;;;15.73;2.10;;;;;;;7.33;99.93;102833.91;5039477;28;20086;-71
2022/03/17 07:57:57;;;;;;;6.43;1.30;;;;;;;7.31;100.00;102832.00;5048621;28;20066;-70
2022/03/17 08:00:22;;;;;;;7.38;1.67;;;;;;;7.31;99.88;102838.16;5037039;28;20473;-71
2022/03/17 08:02:47;;;;;;;12.23;1.70;;;;;;;7.30;99.96;102841.59;5029537;28;20132;-71
2022/03/17 08:05:14;;;;;;;15.45;2.15;;;;;;;7.37;100.00;102854.25;5034083;28;20120;-71
2022/03/17 08:07:39;;;;;;;8.80;1.30;;;;;;;7.45;99.99;102857.34;5028926;28;20500;-71
2022/03/17 08:10:05;;;;;;;13.02;2.00;;;;;;;7.55;100.00;102864.94;5034467;28;20025;-71
2022/03/17 08:12:31;;;;;;;9.70;1.30;;;;;;;7.65;99.82;102874.31;5030648;28;20114;-70
2022/03/17 08:14:58;;;;;;;6.07;1.50;;;;;;;7.73;98.19;102880.91;5031540;28;20501;-70
2022/03/17 08:17:23;;;;;;;11.65;1.77;;;;;;;7.78;96.92;102888.16;5033756;28;20070;-69
2022/03/17 08:19:48;;;;;;;7.82;1.15;;;;;;;7.87;96.86;102883.47;5031094;28;20377;-70
2022/03/17 08:22:14;;;;;;;5.13;1.58;;;;;;;7.98;96.06;102890.25;5033672;28;20028;-70
2022/03/17 08:24:39;;;;;;;9.77;2.33;;;;;;;7.98;94.74;102892.88;5025267;28;20033;-70
2022/03/17 08:27:05;;;;;;;5.70;1.58;;;;;;;7.94;93.64;102899.63;5031363;28;20025;-70
2022/03/17 08:29:31;;;;;;;4.45;1.20;;;;;;;8.04;93.65;102903.72;5035287;28;20036;-69
2022/03/17 08:31:57;;;;;;;8.48;1.13;;;;;;;8.05;91.85;102916.03;5034786;28;20029;-69
2022/03/17 08:34:22;;;;;;;11.32;1.30;;;;;;;8.12;92.95;102913.78;5035160;28;20029;-69
2022/03/17 08:36:50;;;;;;;10.32;2.20;;;;;;;8.17;93.06;102921.09;5035044;28;20018;-68
2022/03/17 08:39:15;;;;;;;6.22;1.63;;;;;;;8.33;92.97;102928.19;5035320;28;20369;-68
2022/03/17 08:41:41;;;;;;;7.57;1.65;;;;;;;8.30;92.58;102933.22;5035291;28;20029;-69
2022/03/17 08:44:06;;;;;;;10.60;1.40;;;;;;;8.18;90.78;102932.47;5033375;28;20034;-70
2022/03/17 08:49:19;;;;;;;4.60;1.10;;;;;;;8.22;91.43;102956.38;5034983;28;20112;-69
2022/03/17 08:51:53;;;;;;;7.20;1.83;;;;;;;8.27;92.25;102954.03;5021846;28;20053;-69
2022/03/17 08:54:22;;;;;;;10.02;1.67;;;;;;;8.44;92.04;102968.16;5034275;28;20033;-70
2022/03/17 08:56:47;;;;;;;14.65;2.45;;;;;;;8.60;92.01;102960.41;5034566;28;20033;-69
2022/03/17 08:59:13;;;;;;;11.15;2.47;;;;;;;8.62;90.87;102968.38;5033266;28;20025;-69
2022/03/17 09:01:38;;;;;;;14.68;2.05;;;;;;;8.58;89.67;102967.28;5030936;28;20650;-70
2022/03/17 09:04:07;;;;;;;4.53;1.70;;;;;;;8.39;89.42;102975.75;5034294;28;20033;-70
2022/03/17 09:06:32;;;;;;;9.88;1.70;;;;;;;8.46;89.38;102976.16;5021064;28;20069;-70
2022/03/17 09:08:57;;;;;;;10.95;1.98;;;;;;;8.63;90.52;102992.88;5034130;28;20509;-70
2022/03/17 09:11:23;;;;;;;6.25;1.92;;;;;;;8.86;91.64;102994.28;5027774;28;20104;-70
2022/03/17 09:13:49;;;;;;;7.47;2.30;;;;;;;9.02;89.51;102990.78;5034740;28;20045;-70
2022/03/17 09:16:16;;;;;;;9.18;1.80;;;;;;;9.08;89.78;102994.66;5027395;28;20041;-70
2022/03/17 09:18:42;;;;;;;14.57;2.33;;;;;;;9.01;90.36;103005.66;5033424;28;20021;-69
2022/03/17 09:21:08;;;;;;;9.02;2.20;;;;;;;8.91;90.90;103013.78;5032563;28;20037;-70
2022/03/17 09:23:33;;;;;;;15.65;2.92;;;;;;;9.01;91.95;103021.41;5034729;28;20022;-69
2022/03/17 09:25:59;;;;;;;15.75;2.50;;;;;;;8.98;90.47;103021.25;5030944;28;20093;-70
2022/03/17 09:28:26;;;;;;;6.65;2.53;;;;;;;9.25;88.68;103021.91;5033521;28;20025;-69
2022/03/17 09:30:52;;;;;;;11.77;2.60;;;;;;;9.25;86.94;103027.16;5033586;28;20045;-69
2022/03/17 09:33:18;;;;;;;10.15;2.28;;;;;;;9.36;86.60;103027.78;5034531;28;20037;-69
2022/03/17 09:35:43;;;;;;;9.10;2.20;;;;;;;9.47;86.07;103036.28;5025317;28;20037;-69
2022/03/17 09:38:10;;;;;;;5.55;1.88;;;;;;;9.39;86.89;103048.06;5034671;28;20021;-68
2022/03/17 09:40:36;;;;;;;12.38;2.13;;;;;;;9.20;85.02;103048.75;5034536;28;20021;-68
2022/03/17 09:46:06;;;;;;;12.13;2.40;;;;;;;9.28;84.76;103063.22;5031316;28;20056;-69
2022/03/17 09:48:32;;;;;;;13.45;3.35;;;;;;;9.30;84.49;103072.09;5025915;28;20049;-69
2022/03/17 09:50:58;;;;;;;8.52;2.33;;;;;;;9.26;86.65;103076.28;5026730;28;20034;-68
2022/03/17 09:53:24;;;;;;;12.25;3.03;;;;;;;9.15;87.68;103081.72;5025787;28;20049;-70
2022/03/17 09:55:50;;;;;;;21.23;4.32;;;;;;;9.53;84.52;103083.91;5024501;28;20057;-70
2022/03/17 09:58:16;;;;;;;10.27;2.40;;;;;;;9.49;82.76;103084.56;5033074;28;20439;-70
2022/03/17 10:00:48;;;;;;;8.52;2.40;;;;;;;9.48;83.33;103087.09;5030888;28;20037;-70
2022/03/17 10:03:25;;;;;;;12.55;2.90;;;;;;;9.64;84.03;103089.78;5032500;28;20092;-70
2022/03/17 10:05:52;;;;;;;8.35;3.15;;;;;;;10.07;84.44;103080.75;5022231;28;20036;-70
2022/03/17 10:08:20;;;;;;;7.75;2.88;;;;;;;10.21;82.65;103094.66;5032868;28;20037;-70
2022/03/17 10:10:45;;;;;;;8.65;2.80;;;;;;;10.03;82.05;103094.56;5031215;28;20112;-69
2022/03/17 10:13:19;;;;;;;9.80;2.83;;;;;;;9.74;83.62;103104.34;5029312;28;20532;-70
2022/03/17 10:16:05;;;;;;;8.60;3.17;;;;;;;9.99;84.26;103122.41;5030124;28;20091;-70
2022/03/17 10:18:30;;;;;;;15.98;3.10;;;;;;;10.33;81.72;103124.28;5030574;28;20128;-70
2022/03/17 10:21:16;;;;;;;6.95;2.38;;;;;;;10.48;79.25;103120.69;5022804;28;20493;-71
2022/03/17 10:23:47;;;;;;;9.93;3.08;;;;;;;10.51;78.76;103126.13;5033358;28;20041;-70
2022/03/17 10:26:42;;;;;;;11.45;2.70;;;;;;;10.39;81.15;103140.44;5032782;28;21340;-70
2022/03/17 10:29:15;;;;;;;9.63;2.20;;;;;;;10.25;78.38;103146.63;5031746;28;20071;-70
2022/03/17 10:32:01;;;;;;;6.25;2.08;;;;;;;10.13;80.32;103146.84;5031616;28;20482;-69
2022/03/17 10:34:36;;;;;;;7.45;2.80;;;;;;;10.15;80.42;103157.44;5027924;28;20041;-70
2022/03/17 10:37:10;;;;;;;7.05;2.60;;;;;;;9.98;82.87;103174.94;5038256;28;20044;-70
2022/03/17 10:39:42;;;;;;;13.23;2.58;;;;;;;9.87;83.51;103182.22;5029374;28;20492;-70
2022/03/17 10:42:19;;;;;;;6.90;2.65;;;;;;;10.33;83.38;103184.78;5031585;28;20044;-69
2022/03/17 10:44:56;;;;;;;14.00;2.75;;;;;;;10.92;79.74;103185.34;5039950;28;20052;-70
2022/03/17 10:47:30;;;;;;;5.60;2.30;;;;;;;11.18;77.64;103185.81;5027618;28;20021;-69
2022/03/17 10:50:15;;;;;;;9.23;2.08;;;;;;;11.65;74.05;103192.59;5028531;28;20046;-68
2022/03/17 10:52:56;;;;;;;10.90;2.08;;;;;;;11.69;71.66;103185.75;5030952;28;20385;-70
2022/03/17 10:55:29;;;;;;;7.68;1.88;;;;;;;11.62;73.64;103179.25;5025304;28;20029;-70
2022/03/17 10:57:59;;;;;;;7.40;2.28;;;;;;;11.54;75.09;103196.44;5033228;28;20148;-68
2022/03/17 11:00:27;;;;;;;7.90;2.22;;;;;;;11.54;74.25;103199.06;5034929;28;20465;-70
2022/03/17 11:02:57;;;;;;;8.82;2.75;;;;;;;11.55;72.31;103200.88;5032021;28;20026;-70
2022/03/17 11:05:27;;;;;;;6.05;1.63;;;;;;;11.56;71.91;103200.06;5033725;28;20116;-70
2022/03/17 11:07:54;;;;;;;9.20;2.22;;;;;;;11.89;70.64;103192.00;5034267;28;20030;-70
2022/03/17 11:10:22;;;;;;;13.30;1.98;;;;;;;12.71;70.19;103194.16;5026703;28;20021;-69
2022/03/17 11:12:48;;;;;;;15.30;2.65;;;;;;;12.65;70.65;103202.69;5031133;28;20025;-70
2022/03/17 11:15:13;;;;;;;8.00;2.00;;;;;;;12.73;70.14;103200.41;5030446;28;20037;-70
2022/03/17 11:17:44;;;;;;;8.43;2.13;;;;;;;12.61;71.10;103207.75;5030345;28;20063;-70
2022/03/17 11:20:12;;;;;;;7.43;1.77;;;;;;;12.77;66.84;103206.75;5031209;28;20079;-70
2022/03/17 11:22:39;;;;;;;6.10;1.48;;;;;;;13.22;67.54;103206.06;5030374;28;20091;-70
2022/03/17 11:25:24;;;;;;;7.00;1.80;;;;;;;13.30;66.29;103202.91;5029317;28;20032;-70
2022/03/17 11:27:55;;;;;;;10.32;2.05;;;;;;;12.78;66.87;103208.56;5025755;28;20108;-70
2022/03/17 11:30:21;;;;;;;6.40;2.60;;;;;;;13.00;67.56;103221.00;5029604;28;20477;-69
2022/03/17 11:32:55;;;;;;;9.15;2.00;;;;;;;13.09;64.89;103204.63;5032989;28;20079;-70